• Join FlightAware (Why Join?)
  • Login
  • US Flag 
07:24AM EDT


 

Airport Tracker/Info


-or-


 

Live Flight TrackerFlight Track Log ✈ OPT438 ✈ 24-Feb-2014 ✈ KSUA - KBLM

Flight Track Log - Related Links

Times and Time Zones

All times are in EST time to prevent confusion due to time zone crossing. See the OPT438 flight status page for this flight to view local times or setup timezone preferences in your user account.

Time Position Orientation Groundspeed Altitude Reporting Facility
EST Latitude Longitude Course Direction KTS MPH feet Rate Location/Type
04:12PM 27.1464 -80.1339 13° North 199 229 3,000  Level Miami Center
04:13PM 27.1100 -80.1725 223° Southwest 134 154 4,700 1,200 Climbing Miami Center
04:14PM 27.1336 -80.2339 293° West 97 112 5,400 1,320 Climbing Miami Center
04:15PM 27.1786 -80.2772 319° Northwest 185 213 7,400 2,160 Climbing Miami Center
04:16PM 27.2408 -80.3000 342° North 208 239 9,800 2,520 Climbing Miami Center
04:17PM 27.3523 -80.5703 13° North  Level FlightAware Approximate
04:17PM 27.3131 -80.3328 338° Northwest 243 280 12,500  Level Miami Center
04:18PM 27.3900 -80.3444 352° North 260 299 14,100 1,500 Climbing Miami Center
04:19PM 27.4781 -80.3306 North 293 337 15,600 1,620 Climbing Miami Center
04:20PM 27.5619 -80.3122 11° North 327 376 17,400 1,620 Climbing Miami Center
04:21PM 27.6494 -80.2328 39° Northeast 339 390 18,900 840 Climbing Miami Center
04:22PM 27.7328 -80.1531 40° Northeast 358 412 19,100 600 Climbing Miami Center
04:23PM 27.8242 -80.0711 38° Northeast 386 444 20,200 1,080 Climbing Miami Center
04:24PM 27.9053 -79.9958 39° Northeast 412 474 21,300 1,140 Climbing Miami Center
04:25PM 27.9969 -79.9114 39° Northeast 420 483 22,500 1,440 Climbing Miami Center
04:26PM 28.1089 -79.8486 26° Northeast 406 467 24,200 1,620 Climbing Miami Center
04:27PM 28.2161 -79.8136 16° North 401 461 25,800 1,560 Climbing Miami Center
04:28PM 28.3253 -79.7742 18° North 401 461 27,400 1,440 Climbing Miami Center
04:29PM 28.4306 -79.7367 17° North 396 456 28,700 1,140 Climbing Miami Center
04:30PM 28.5397 -79.6992 17° North 401 461 29,700 960 Climbing Miami Center
04:31PM 28.6511 -79.6594 17° North 407 468 30,700 960 Climbing Miami Center
04:32PM 28.7644 -79.6222 16° North 414 476 31,700 960 Climbing Miami Center
04:33PM 28.8800 -79.5825 17° North 419 482 32,700 960 Climbing Miami Center
04:34PM 28.9975 -79.5450 16° North 425 489 33,700 960 Climbing Miami Center
04:35PM 29.1131 -79.5028 18° North 425 489 34,700 960 Climbing Miami Center
04:36PM 29.2347 -79.4675 14° North 425 489 35,700 900 Climbing Miami Center
04:37PM 29.3439 -79.4225 20° North 420 483 36,500 660 Climbing Miami Center
04:38PM 29.4553 -79.3775 19° North 420 483 37,100 540 Climbing Miami Center
04:39PM 29.5686 -79.3372 17° North 425 489 37,600 480 Climbing Miami Center
04:40PM 29.6883 -79.2969 16° North 425 489 38,100 480 Climbing Miami Center
04:41PM 29.7994 -79.2539 19° North 425 489 38,600 240 Climbing Miami Center
04:43PM 30.0636 -79.1608 17° North 432 497 39,000 120 Climbing Jacksonville Center
04:44PM 30.1836 -79.1203 16° North 437 503 39,000  Level Jacksonville Center
04:45PM 30.2969 -79.0725 20° North 437 503 39,000  Level Jacksonville Center
04:46PM 30.4231 -79.0289 17° North 444 511 39,000  Level Jacksonville Center
04:47PM 30.5447 -78.9828 18° North 455 524 39,000  Level Jacksonville Center
04:48PM 30.6686 -78.9392 17° North 460 529 39,000  Level Jacksonville Center
04:49PM 30.7986 -78.8925 17° North 468 539 39,000  Level Jacksonville Center
04:50PM 30.9244 -78.8461 18° North 474 545 39,000  Level Jacksonville Center
04:51PM 31.0361 -78.8075 17° North 470 541 39,000  Level Jacksonville Center
04:52PM 31.1617 -78.7558 19° North 470 541 39,000  Level Jacksonville Center
04:53PM 31.2856 -78.7139 16° North 465 535 39,000  Level Jacksonville Center
04:54PM 31.4053 -78.6722 17° North 459 528 39,000  Level Jacksonville Center
04:55PM 31.5331 -78.6200 19° North 459 528 39,000  Level Jacksonville Center
04:56PM 31.6525 -78.5778 17° North 454 522 39,000  Level Jacksonville Center
04:57PM 31.7742 -78.5306 18° North 454 522 39,000  Level Jacksonville Center
04:58PM 31.8939 -78.4883 17° North 454 522 39,000  Level Jacksonville Center
04:59PM 32.0153 -78.4408 18° North 454 522 39,000  Level Jacksonville Center
05:00PM 32.1367 -78.3958 17° North 454 522 39,000 120 Level Jacksonville Center
05:01PM 32.2542 -78.3506 18° North 454 522 39,300 360 Climbing Jacksonville Center
05:02PM 32.3881 -78.2997 18° North 454 522 39,800 480 Climbing Jacksonville Center
05:03PM 32.5031 -78.2519 19° North 449 517 40,300 480 Climbing Jacksonville Center
05:04PM 32.6206 -78.2114 16° North 439 505 40,800 300 Climbing Jacksonville Center
05:05PM 32.7317 -78.1686 18° North 427 491 41,000 60 Climbing Jacksonville Center
05:06PM 32.8489 -78.1206 19° North 427 491 41,000  Level Jacksonville Center
05:07PM 32.9642 -78.0797 17° North 427 491 41,000  Level Jacksonville Center
05:08PM 33.0814 -78.0339 18° North 433 498 41,000  Level Jacksonville Center
05:09PM 33.2028 -77.9875 18° North 433 498 41,000  Level Jacksonville Center
05:11PM 33.4361 -77.8983 18° North 429 494 41,000  Level Washington Center
05:12PM 33.5581 -77.8494 18° North 440 506 41,000  Level Washington Center
05:13PM 33.6778 -77.8028 18° North 446 513 41,000  Level Washington Center
05:14PM 33.8019 -77.7536 18° North 446 513 41,000  Level Washington Center
05:15PM 33.9239 -77.6967 21° North 457 526 41,000  Level Washington Center
05:16PM 34.0458 -77.6372 22° Northeast 463 533 41,000  Level Washington Center
05:17PM 34.1636 -77.5772 23° Northeast 457 526 41,000  Level Washington Center
05:18PM 34.2711 -77.5244 22° Northeast 457 526 41,000  Level Washington Center
05:19PM 34.3889 -77.4619 24° Northeast 457 526 41,000  Level Washington Center
05:20PM 34.5044 -77.4042 22° Northeast 457 526 41,000 -60 Level Washington Center
05:21PM 34.6203 -77.3411 24° Northeast 457 526 40,900 -600 Descending Washington Center
05:22PM 34.7358 -77.2828 23° Northeast 452 520 39,900 -1,080 Descending Washington Center
05:23PM 34.8597 -77.2119 25° Northeast 452 520 38,800 -1,080 Descending Washington Center
05:24PM 34.9775 -77.1536 22° Northeast 446 513 37,800 -960 Descending Washington Center
05:25PM 35.0844 -77.0997 22° Northeast 446 513 36,900 -420 Descending Washington Center
05:26PM 35.2086 -77.0308 24° Northeast 446 513 37,000 -120 Climbing Washington Center
05:27PM 35.3281 -76.9669 24° Northeast 446 513 36,700 -660 Descending Washington Center
05:28PM 35.4458 -76.9050 23° Northeast 446 513 35,700 -1,080 Descending Washington Center
05:29PM 35.5653 -76.8433 23° Northeast 451 519 34,600 -1,140 Descending Washington Center
05:30PM 35.6764 -76.7811 24° Northeast 451 519 33,500 -840 Descending Washington Center
05:31PM 35.7856 -76.7211 24° Northeast 439 505 33,000 -300 Descending Washington Center
05:32PM 35.8947 -76.6639 23° Northeast 429 494 33,000  Level Washington Center
05:33PM 36.0058 -76.6036 24° Northeast 423 487 33,000 -60 Level Washington Center
05:34PM 36.1167 -76.5433 24° Northeast 423 487 32,900 -660 Descending Washington Center
05:35PM 36.2300 -76.4856 22° Northeast 428 493 31,800 -1,080 Descending Washington Center
05:36PM 36.3431 -76.4222 24° Northeast 434 499 30,800 -1,080 Descending Washington Center
05:37PM 36.4581 -76.3614 23° Northeast 441 507 29,700 -960 Descending Washington Center
05:38PM 36.5733 -76.2981 24° Northeast 441 507 29,000 -360 Descending Washington Center
05:39PM 36.6842 -76.2394 23° Northeast 441 507 29,000  Level Washington Center
05:40PM 36.7992 -76.1703 26° Northeast 441 507 29,000  Level Washington Center
05:41PM 36.9122 -76.1089 23° Northeast 441 507 29,000  Level Washington Center
05:42PM 37.0272 -76.0472 23° Northeast 441 507 29,000 -60 Level Washington Center
05:43PM 37.1400 -75.9878 23° Northeast 441 507 28,900  Descending Washington Center
05:44PM 37.2528 -75.9233 24° Northeast 441 507 29,000 -420 Climbing Washington Center
05:45PM 37.3700 -75.8583 24° Northeast 441 507 28,100 -1,020 Descending Washington Center
05:46PM 37.4806 -75.7961 24° Northeast 436 502 27,100 -1,020 Descending Washington Center
05:47PM 37.5892 -75.7333 25° Northeast 436 502 26,100 -900 Descending Washington Center
05:48PM 37.6767 -75.6836 24° Northeast 430 495 25,300 -600 Descending Washington Center
05:49PM 37.7914 -75.6206 23° Northeast 437 503 25,000 -840 Descending Washington Center
05:50PM 37.9228 -75.5444 25° Northeast 437 503 23,700 -1,140 Descending Washington Center
05:51PM 38.0208 -75.4942 22° Northeast 437 503 22,800 -1,260 Descending Washington Center
05:52PM 38.1250 -75.4228 28° Northeast 432 497 21,300 -1,800 Descending Washington Center
05:53PM 38.2250 -75.3617 26° Northeast 411 473 19,300 -2,160 Descending Washington Center
05:54PM 38.3333 -75.2900 27° Northeast 396 456 17,000 -2,160 Descending Washington Center
05:55PM 38.4269 -75.2339 25° Northeast 384 442 15,000 -2,040 Descending Washington Center
05:56PM 38.5164 -75.1778 26° Northeast 372 428 13,000 -1,920 Descending Washington Center
05:57PM 38.5997 -75.1242 27° Northeast 346 398 11,300 -1,020 Descending Washington Center
05:58PM 38.6892 -75.0678 26° Northeast 339 390 11,000 -180 Descending Washington Center
05:59PM 38.7742 -75.0086 28° Northeast 339 390 11,000 -60 Level Washington Center
06:00PM 38.8594 -74.9572 25° Northeast 344 396 10,900 -660 Descending Washington Center
06:01PM 38.9322 -74.9086 27° Northeast 325 374 9,800 -1,080 Descending Washington Center
06:02PM 39.0006 -74.8625 28° Northeast 292 336 8,800 -1,080 Descending Washington Center
06:03PM 39.0711 -74.8189 26° Northeast 278 320 7,700 -960 Descending Washington Center
06:04PM 39.1333 -74.7622 35° Northeast 273 314 7,000 -360 Descending Washington Center
06:05PM 39.1933 -74.6997 39° Northeast 273 314 7,000  Level Washington Center
06:06PM 39.2511 -74.6347 41° Northeast 273 314 7,000  Level Washington Center
06:07PM 39.3111 -74.5694 40° Northeast 273 314 7,000  Level Washington Center
06:08PM 39.3689 -74.5069 40° Northeast 278 320 7,000  Level Washington Center
06:09PM 39.4267 -74.4444 40° Northeast 278 320 7,000 -120 Level Washington Center
06:10PM 39.4844 -74.3789 41° Northeast 278 320 6,800 -240 Descending Washington Center
06:12PM 39.5749 -74.2585 38° Northeast  Level FlightAware Approximate
06:19PM 40.1833 -74.1167 330° Northwest  Level FlightAware Approximate
06:20PM 40.1867 -74.1246 330° Northwest  Level Estimated
06:21PM 40.1833 -74.1167 330° Northwest  Level FlightAware Approximate
06:22PM 40.1867 -74.1246 330° Northwest  Level Estimated
06:23PM 40.1833 -74.1167 330° Northwest  Level FlightAware Approximate
06:24PM 40.1867 -74.1246 330° Northwest  Level Estimated
06:25PM 40.1833 -74.1167 330° Northwest  Level FlightAware Approximate
06:26PM 40.1867 -74.1246 330° Northwest  Level Estimated
06:27PM 40.1833 -74.1167 330° Northwest  Level FlightAware Approximate
06:28PM 40.1867 -74.1246 330° Northwest  Level Estimated
06:29PM 40.1833 -74.1167 330° Northwest  Level FlightAware Approximate
06:30PM 40.1867 -74.1246 330° Northwest  Level Estimated
06:31PM 40.1833 -74.1167 330° Northwest  Level FlightAware Approximate
06:32PM 40.1867 -74.1246 330° Northwest  Level Estimated
06:33PM 40.1833 -74.1167 330° Northwest  Level FlightAware Approximate
06:34PM 40.1867 -74.1246 330° Northwest  Level Estimated